createdAt,value
2018-05-12T00:00:10.013Z,13.1
2018-05-12T00:01:09.247Z,13.1
2018-05-12T00:02:08.578Z,13.1
2018-05-12T00:03:08.011Z,13
2018-05-12T00:04:07.240Z,13
2018-05-12T00:05:06.348Z,13
2018-05-12T00:06:05.564Z,13
2018-05-12T00:07:04.793Z,13
2018-05-12T00:08:04.009Z,12.9
2018-05-12T00:08:34.813Z,12.9
2018-05-12T00:09:05.296Z,12.9
2018-05-12T00:09:35.943Z,12.9
2018-05-12T00:10:06.590Z,12.9
2018-05-12T00:10:37.117Z,12.9
2018-05-12T00:12:01.212Z,12.8
2018-05-12T00:13:00.050Z,12.8
2018-05-12T00:13:59.373Z,12.8
2018-05-12T00:14:58.833Z,12.8
2018-05-12T00:15:58.290Z,12.8
2018-05-12T00:16:57.521Z,12.8
2018-05-12T00:17:56.348Z,12.7
2018-05-12T00:18:55.566Z,12.7
2018-05-12T00:19:26.205Z,12.7
2018-05-12T00:19:56.724Z,12.7
2018-05-12T00:20:27.249Z,12.7
2018-05-12T00:20:57.770Z,12.7
2018-05-12T00:21:28.399Z,12.7
2018-05-12T00:21:59.047Z,12.7
2018-05-12T00:22:29.582Z,12.7
2018-05-12T00:23:52.060Z,12.6
2018-05-12T00:25:50.052Z,12.6
2018-05-12T00:26:49.771Z,12.6
2018-05-12T00:27:49.202Z,12.5
2018-05-12T00:28:48.032Z,12.5
2018-05-12T00:30:46.853Z,12.5
2018-05-12T00:31:46.179Z,12.5
2018-05-12T00:32:16.808Z,12.5
2018-05-12T00:32:47.061Z,12.4
2018-05-12T00:33:17.593Z,12.4
2018-05-12T00:34:43.489Z,12.4
2018-05-12T00:35:42.924Z,12.4
2018-05-12T00:36:42.048Z,12.4
2018-05-12T00:37:41.388Z,12.3
2018-05-12T00:38:40.620Z,12.3
2018-05-12T00:39:39.953Z,12.3
2018-05-12T00:40:39.178Z,12.3
2018-05-12T00:41:38.098Z,12.3
2018-05-12T00:42:37.527Z,12.3
2018-05-12T00:43:36.848Z,12.3
2018-05-12T00:44:35.780Z,12.3
2018-05-12T00:45:35.114Z,12.3
2018-05-12T00:46:34.539Z,12.3
2018-05-12T00:47:33.766Z,12.3
2018-05-12T00:48:33.198Z,12.3
2018-05-12T00:49:32.109Z,12.3
2018-05-12T00:50:31.223Z,12.3
2018-05-12T00:51:30.661Z,12.3
2018-05-12T00:52:00.905Z,12.3
2018-05-12T00:53:28.719Z,12.3
2018-05-12T00:54:28.162Z,12.3
2018-05-12T00:55:27.499Z,12.3
2018-05-12T00:56:26.935Z,12.3
2018-05-12T00:57:25.858Z,12.3
2018-05-12T00:58:25.069Z,12.3
2018-05-12T00:59:24.493Z,12.3
2018-05-12T01:00:23.489Z,12.3
2018-05-12T01:01:22.708Z,12.2
2018-05-12T01:01:53.473Z,12.2
2018-05-12T01:02:24.108Z,12.2
2018-05-12T01:02:54.755Z,12.2
2018-05-12T01:03:25.292Z,12.2
2018-05-12T01:03:55.923Z,12.2
2018-05-12T01:04:26.440Z,12.2
2018-05-12T01:05:20.121Z,12.2
2018-05-12T01:06:19.054Z,12.2
2018-05-12T01:07:18.276Z,12.2
2018-05-12T01:08:17.494Z,12.2
2018-05-12T01:09:16.724Z,12.2
2018-05-12T01:10:16.165Z,12.2
2018-05-12T01:11:15.281Z,12.2
2018-05-12T01:12:14.505Z,12.2
2018-05-12T01:13:13.434Z,12.1
2018-05-12T01:15:12.155Z,12.2
2018-05-12T01:16:11.482Z,12.1
2018-05-12T01:17:10.693Z,12.1
2018-05-12T01:18:10.019Z,12.1
2018-05-12T01:19:08.949Z,12.1
2018-05-12T01:20:08.289Z,12.1
2018-05-12T01:21:07.721Z,12.1
2018-05-12T01:22:06.558Z,12.1
2018-05-12T01:23:06.091Z,12.1
2018-05-12T01:24:04.804Z,12.1
2018-05-12T01:25:04.021Z,12.1
2018-05-12T01:26:03.458Z,12.1
2018-05-12T01:27:02.788Z,12
2018-05-12T01:28:02.074Z,12
2018-05-12T01:29:01.402Z,12
2018-05-12T01:30:59.808Z,12
2018-05-12T01:31:59.033Z,11.9
2018-05-12T01:32:58.278Z,11.9
2018-05-12T01:33:57.492Z,11.9
2018-05-12T01:34:56.808Z,11.9
2018-05-12T01:35:55.625Z,11.9
2018-05-12T01:36:55.194Z,11.9
2018-05-12T01:37:54.526Z,11.9
2018-05-12T01:38:53.637Z,11.9
2018-05-12T01:39:52.863Z,11.9
2018-05-12T01:40:51.686Z,11.8
2018-05-12T01:41:51.292Z,11.8
2018-05-12T01:42:50.619Z,11.8
2018-05-12T01:43:49.476Z,11.7
2018-05-12T01:44:48.796Z,11.7
2018-05-12T01:45:48.129Z,11.7
2018-05-12T01:47:46.341Z,11.7
2018-05-12T01:48:45.549Z,11.7
2018-05-12T01:49:44.764Z,11.6
2018-05-12T01:50:44.304Z,11.6
2018-05-12T01:51:43.517Z,11.6
2018-05-12T01:52:42.621Z,11.6
2018-05-12T01:53:41.555Z,11.6
2018-05-12T01:54:40.879Z,11.6
2018-05-12T01:55:40.212Z,11.6
2018-05-12T01:56:39.649Z,11.6
2018-05-12T01:57:09.887Z,11.6
2018-05-12T01:57:40.516Z,11.6
2018-05-12T01:58:10.767Z,11.6
2018-05-12T01:58:41.301Z,11.5
2018-05-12T01:59:11.944Z,11.5
2018-05-12T01:59:42.137Z,11.5
2018-05-12T02:00:36.215Z,11.5
2018-05-12T02:01:35.645Z,11.5
2018-05-12T02:02:34.970Z,11.5
2018-05-12T02:03:33.908Z,11.5
2018-05-12T02:04:33.338Z,11.5
2018-05-12T02:05:32.252Z,11.5
2018-05-12T02:06:31.580Z,11.5
2018-05-12T02:07:31.018Z,11.5
2018-05-12T02:08:01.267Z,11.5
2018-05-12T02:09:29.067Z,11.5
2018-05-12T02:10:28.284Z,11.5
2018-05-12T02:11:27.714Z,11.5
2018-05-12T02:12:27.044Z,11.5
2018-05-12T02:13:25.876Z,11.5
2018-05-12T02:14:25.356Z,11.5
2018-05-12T02:15:24.589Z,11.5
2018-05-12T02:16:23.589Z,11.5
2018-05-12T02:17:22.917Z,11.5
2018-05-12T02:18:22.343Z,11.4
2018-05-12T02:19:20.948Z,11.4
2018-05-12T02:20:20.558Z,11.4
2018-05-12T02:22:19.056Z,11.4
2018-05-12T02:24:17.555Z,11.5
2018-05-12T02:25:16.368Z,11.5
2018-05-12T02:26:15.986Z,11.5
2018-05-12T02:27:15.211Z,11.5
2018-05-12T02:28:14.320Z,11.5
2018-05-12T02:28:44.743Z,11.5
2018-05-12T02:29:15.391Z,11.5
2018-05-12T02:30:12.829Z,11.5
2018-05-12T02:31:11.791Z,11.5
2018-05-12T02:32:11.119Z,11.6
2018-05-12T02:33:10.234Z,11.5
2018-05-12T02:34:09.348Z,11.6
2018-05-12T02:35:08.793Z,11.6
2018-05-12T02:36:08.155Z,11.6
2018-05-12T02:37:06.994Z,11.6
2018-05-12T02:38:06.103Z,11.6
2018-05-12T02:39:05.451Z,11.6
2018-05-12T02:39:35.995Z,11.6
2018-05-12T02:41:03.794Z,11.6
2018-05-12T02:42:03.145Z,11.6
2018-05-12T02:43:02.376Z,11.6
2018-05-12T02:44:01.724Z,11.6
2018-05-12T02:45:00.853Z,11.7
2018-05-12T02:46:00.211Z,11.7
2018-05-12T02:46:59.548Z,11.7
2018-05-12T02:47:58.659Z,11.6
2018-05-12T02:48:57.481Z,11.6
2018-05-12T02:49:56.734Z,11.7
2018-05-12T02:50:27.156Z,11.7
2018-05-12T02:51:55.300Z,11.6
2018-05-12T02:52:54.635Z,11.6
2018-05-12T02:53:53.955Z,11.6
2018-05-12T02:54:52.789Z,11.6
2018-05-12T02:55:52.117Z,11.6
2018-05-12T02:56:51.587Z,11.6
2018-05-12T02:57:50.406Z,11.6
2018-05-12T02:58:49.850Z,11.6
2018-05-12T02:59:49.080Z,11.6
2018-05-12T03:00:47.902Z,11.6
2018-05-12T03:01:47.296Z,11.6
2018-05-12T03:02:46.751Z,11.6
2018-05-12T03:03:46.070Z,11.6
2018-05-12T03:04:45.200Z,11.6
2018-05-12T03:05:44.036Z,11.6
2018-05-12T03:06:43.284Z,11.5
2018-05-12T03:07:42.281Z,11.6
2018-05-12T03:08:42.028Z,11.6
2018-05-12T03:09:41.363Z,11.6
2018-05-12T03:10:39.985Z,11.5
2018-05-12T03:11:39.448Z,11.5
2018-05-12T03:12:38.789Z,11.5
2018-05-12T03:13:37.611Z,11.5
2018-05-12T03:14:37.050Z,11.6
2018-05-12T03:15:36.357Z,11.6
2018-05-12T03:16:35.578Z,11.6
2018-05-12T03:17:34.903Z,11.6
2018-05-12T03:18:34.120Z,11.6
2018-05-12T03:19:33.447Z,11.6
2018-05-12T03:20:32.161Z,11.6
2018-05-12T03:21:31.275Z,11.6
2018-05-12T03:22:30.595Z,11.6
2018-05-12T03:23:29.925Z,11.6
2018-05-12T03:24:29.140Z,11.6
2018-05-12T03:25:28.464Z,11.6
2018-05-12T03:26:27.680Z,11.6
2018-05-12T03:28:25.887Z,11.6
2018-05-12T03:29:25.111Z,11.6
2018-05-12T03:30:24.321Z,11.6
2018-05-12T03:32:22.816Z,11.6
2018-05-12T03:33:22.313Z,11.7
2018-05-12T03:34:21.027Z,11.7
2018-05-12T03:35:20.747Z,11.7
2018-05-12T03:37:19.081Z,11.7
2018-05-12T03:38:18.307Z,11.7
2018-05-12T03:39:17.430Z,11.7
2018-05-12T03:40:16.757Z,11.7
2018-05-12T03:41:15.587Z,11.7
2018-05-12T03:42:14.796Z,11.7
2018-05-12T03:43:14.115Z,11.7
2018-05-12T03:44:13.327Z,11.7
2018-05-12T03:45:12.760Z,11.7
2018-05-12T03:46:12.110Z,11.7
2018-05-12T03:48:10.214Z,11.7
2018-05-12T03:50:08.808Z,11.7
2018-05-12T03:51:07.749Z,11.7
2018-05-12T03:52:07.074Z,11.7
2018-05-12T03:53:06.403Z,11.7
2018-05-12T03:54:05.731Z,11.7
2018-05-12T03:55:04.445Z,11.7
2018-05-12T03:56:03.765Z,11.7
2018-05-12T03:57:02.759Z,11.7
2018-05-12T03:58:02.476Z,11.7
2018-05-12T03:59:01.405Z,11.7
2018-05-12T03:59:31.827Z,11.7
2018-05-12T04:00:59.835Z,11.7
2018-05-12T04:01:59.274Z,11.7
2018-05-12T04:02:58.103Z,11.7
2018-05-12T04:03:57.430Z,11.7
2018-05-12T04:04:56.642Z,11.7
2018-05-12T04:05:55.968Z,11.8
2018-05-12T04:06:55.404Z,11.8
2018-05-12T04:07:54.113Z,11.8
2018-05-12T04:08:53.551Z,11.8
2018-05-12T04:10:52.273Z,11.8
2018-05-12T04:11:51.375Z,11.8
2018-05-12T04:12:50.310Z,11.8
2018-05-12T04:13:49.930Z,11.9
2018-05-12T04:14:48.756Z,11.9
2018-05-12T04:15:47.867Z,11.9
2018-05-12T04:16:47.197Z,11.9
2018-05-12T04:17:46.525Z,11.9
2018-05-12T04:18:45.738Z,11.9
2018-05-12T04:20:44.351Z,11.9
2018-05-12T04:21:43.163Z,12
2018-05-12T04:22:42.490Z,12
2018-05-12T04:23:41.918Z,12
2018-05-12T04:24:41.238Z,12
2018-05-12T04:25:40.062Z,12
2018-05-12T04:26:39.400Z,12.1
2018-05-12T04:27:38.729Z,12.1
2018-05-12T04:28:37.547Z,12.1
2018-05-12T04:29:36.871Z,12.1
2018-05-12T04:30:36.199Z,12.2
2018-05-12T04:31:35.530Z,12.2
2018-05-12T04:32:34.853Z,12.2
2018-05-12T04:33:33.967Z,12.3
2018-05-12T04:34:33.193Z,12.3
2018-05-12T04:35:32.411Z,12.3
2018-05-12T04:36:31.337Z,12.3
2018-05-12T04:37:30.662Z,12.3
2018-05-12T04:38:29.994Z,12.4
2018-05-12T04:39:29.104Z,12.4
2018-05-12T04:40:28.447Z,12.4
2018-05-12T04:41:27.661Z,12.4
2018-05-12T04:42:26.882Z,12.4
2018-05-12T04:43:26.407Z,12.4
2018-05-12T04:44:25.249Z,12.4
2018-05-12T04:45:24.643Z,12.5
2018-05-12T04:46:23.962Z,12.5
2018-05-12T04:47:22.778Z,12.5
2018-05-12T04:48:22.232Z,12.5
2018-05-12T04:49:21.161Z,12.5
2018-05-12T04:50:20.382Z,12.5
2018-05-12T04:51:19.913Z,12.5
2018-05-12T04:52:18.920Z,12.5
2018-05-12T04:53:18.028Z,12.6
2018-05-12T04:54:17.768Z,12.6
2018-05-12T04:55:16.906Z,12.6
2018-05-12T04:56:16.125Z,12.6
2018-05-12T04:57:14.941Z,12.7
2018-05-12T04:58:14.149Z,12.7
2018-05-12T04:59:13.467Z,12.7
2018-05-12T05:00:12.691Z,12.7
2018-05-12T05:01:11.931Z,12.7
2018-05-12T05:02:11.332Z,12.8
2018-05-12T05:03:10.551Z,12.8
2018-05-12T05:04:09.870Z,12.8
2018-05-12T05:05:08.682Z,12.8
2018-05-12T05:06:07.893Z,12.8
2018-05-12T05:07:07.313Z,12.8
2018-05-12T05:08:06.745Z,12.9
2018-05-12T05:10:05.306Z,12.9
2018-05-12T05:11:04.239Z,12.9
2018-05-12T05:13:02.954Z,12.9
2018-05-12T05:14:02.057Z,12.9
2018-05-12T05:15:01.067Z,13
2018-05-12T05:16:00.394Z,13
2018-05-12T05:16:59.613Z,13
2018-05-12T05:17:58.943Z,13
2018-05-12T05:18:58.075Z,13.1
2018-05-12T05:19:57.291Z,13.1
2018-05-12T05:20:56.501Z,13
2018-05-12T05:21:55.713Z,13.1
2018-05-12T05:22:54.929Z,13.1
2018-05-12T05:24:53.640Z,13.1
2018-05-12T05:25:24.067Z,13.1
2018-05-12T05:26:51.679Z,13.1
2018-05-12T05:27:50.895Z,13.2
2018-05-12T05:29:49.705Z,13.2
2018-05-12T05:30:49.037Z,13.2
2018-05-12T05:31:47.740Z,13.2
2018-05-12T05:32:47.080Z,13.2
2018-05-12T05:34:45.692Z,13.2
2018-05-12T05:35:16.362Z,13.2
2018-05-12T05:36:44.346Z,13.3
2018-05-12T05:37:14.880Z,13.3
2018-05-12T05:37:45.193Z,13.3
2018-05-12T05:39:41.994Z,13.3
2018-05-12T05:40:41.210Z,13.3
2018-05-12T05:41:40.778Z,13.4
2018-05-12T05:42:39.772Z,13.4
2018-05-12T05:43:39.092Z,13.3
2018-05-12T05:44:37.811Z,13.3
2018-05-12T05:45:37.143Z,13.4
2018-05-12T05:46:36.591Z,13.4
2018-05-12T05:47:07.118Z,13.4
2018-05-12T05:47:37.657Z,13.3
2018-05-12T05:48:07.975Z,13.3
2018-05-12T05:48:38.604Z,13.4
2018-05-12T05:49:08.744Z,13.4
2018-05-12T05:49:39.372Z,13.4
2018-05-12T05:50:33.660Z,13.3
2018-05-12T05:51:32.879Z,13.3
2018-05-12T05:52:31.990Z,13.4
2018-05-12T05:53:31.421Z,13.4
2018-05-12T05:54:30.362Z,13.4
2018-05-12T05:55:29.690Z,13.4
2018-05-12T05:56:29.021Z,13.4
2018-05-12T05:57:28.348Z,13.4
2018-05-12T05:58:27.795Z,13.4
2018-05-12T05:59:26.926Z,13.4
2018-05-12T06:01:25.028Z,13.5
2018-05-12T06:03:23.643Z,13.5
2018-05-12T06:04:22.866Z,13.5
2018-05-12T06:05:22.194Z,13.5
2018-05-12T06:06:21.518Z,13.5
2018-05-12T06:06:52.528Z,13.5
2018-05-12T06:08:19.935Z,13.5
2018-05-12T06:09:19.366Z,13.6
2018-05-12T06:10:18.194Z,13.6
2018-05-12T06:11:17.589Z,13.6
2018-05-12T06:13:16.304Z,13.7
2018-05-12T06:15:14.515Z,13.7
2018-05-12T06:16:13.951Z,13.7
2018-05-12T06:17:12.882Z,13.7
2018-05-12T06:17:43.024Z,13.7
2018-05-12T06:18:13.895Z,13.8
2018-05-12T06:18:43.933Z,13.8
2018-05-12T06:19:14.568Z,13.8
2018-05-12T06:20:10.877Z,13.8
2018-05-12T06:21:10.088Z,13.8
2018-05-12T06:22:09.521Z,13.9
2018-05-12T06:23:08.346Z,13.9
2018-05-12T06:24:08.082Z,13.9
2018-05-12T06:25:07.308Z,14
2018-05-12T06:26:06.157Z,13.9
2018-05-12T06:27:05.380Z,14
2018-05-12T06:28:04.708Z,14
2018-05-12T06:28:35.133Z,14
2018-05-12T06:29:05.871Z,14
2018-05-12T06:30:03.096Z,14
2018-05-12T06:31:02.421Z,14
2018-05-12T06:32:01.637Z,14
2018-05-12T06:33:00.854Z,14
2018-05-12T06:34:00.076Z,14
2018-05-12T06:34:59.598Z,14
2018-05-12T06:35:58.826Z,14
2018-05-12T06:36:58.161Z,14.1
2018-05-12T06:37:57.595Z,14.1
2018-05-12T06:38:56.417Z,14.1
2018-05-12T06:39:55.848Z,14.2
2018-05-12T06:40:55.068Z,14.2
2018-05-12T06:41:54.293Z,14.2
2018-05-12T06:42:53.628Z,14.2
2018-05-12T06:43:52.854Z,14.2
2018-05-12T06:44:52.186Z,14.2
2018-05-12T06:45:51.402Z,14.2
2018-05-12T06:46:50.726Z,14.3
2018-05-12T06:47:50.050Z,14.3
2018-05-12T06:48:49.380Z,14.3
2018-05-12T06:49:48.086Z,14.3
2018-05-12T06:50:47.661Z,14.4
2018-05-12T06:51:46.880Z,14.4
2018-05-12T06:52:46.216Z,14.4
2018-05-12T06:53:45.250Z,14.4
2018-05-12T06:54:44.969Z,14.5
2018-05-12T06:55:43.686Z,14.5
2018-05-12T06:56:43.007Z,14.6
2018-05-12T06:57:42.352Z,14.6
2018-05-12T06:58:41.867Z,14.6
2018-05-12T06:59:40.793Z,14.7
2018-05-12T07:00:40.518Z,14.7
2018-05-12T07:01:39.735Z,14.8
2018-05-12T07:02:38.457Z,14.8
2018-05-12T07:03:37.890Z,14.9
2018-05-12T07:04:37.219Z,15
2018-05-12T07:05:36.435Z,15
2018-05-12T07:06:36.059Z,15
2018-05-12T07:07:34.883Z,15.1
2018-05-12T07:08:33.995Z,15.1
2018-05-12T07:09:33.727Z,15.2
2018-05-12T07:10:33.048Z,15.2
2018-05-12T07:11:32.258Z,15.2
2018-05-12T07:12:31.188Z,15.3
2018-05-12T07:13:30.526Z,15.4
2018-05-12T07:14:01.167Z,15.4
2018-05-12T07:14:31.415Z,15.5
2018-05-12T07:15:01.851Z,15.5
2018-05-12T07:16:28.537Z,15.6
2018-05-12T07:19:26.556Z,15.7
2018-05-12T07:20:25.521Z,15.7
2018-05-12T07:21:24.845Z,15.8
2018-05-12T07:22:24.069Z,15.8
2018-05-12T07:23:23.679Z,15.9
2018-05-12T07:23:54.107Z,15.9
2018-05-12T07:24:24.630Z,15.9
2018-05-12T07:24:55.178Z,15.9
2018-05-12T07:25:25.325Z,16
2018-05-12T07:25:55.961Z,16
2018-05-12T07:27:20.243Z,16
2018-05-12T07:28:19.971Z,16.1
2018-05-12T07:29:19.078Z,16.1
2018-05-12T07:30:18.523Z,16.1
2018-05-12T07:31:17.875Z,16.1
2018-05-12T07:32:17.219Z,16
2018-05-12T07:33:16.542Z,16
2018-05-12T07:34:15.469Z,16
2018-05-12T07:35:14.793Z,16
2018-05-12T07:36:14.119Z,16
2018-05-12T07:37:13.340Z,16
2018-05-12T07:38:12.671Z,16.1
2018-05-12T07:39:11.896Z,16.1
2018-05-12T07:40:11.332Z,16.2
2018-05-12T07:41:10.660Z,16.2
2018-05-12T07:42:10.106Z,16.2
2018-05-12T07:43:09.324Z,16.2
2018-05-12T07:43:39.970Z,16.2
2018-05-12T07:45:07.774Z,16.3
2018-05-12T07:46:07.002Z,16.3
2018-05-12T07:47:06.441Z,16.2
2018-05-12T07:48:05.670Z,16.3
2018-05-12T07:49:04.992Z,16.3
2018-05-12T07:50:04.203Z,16.3
2018-05-12T07:52:03.019Z,16.4
2018-05-12T07:53:01.950Z,16.4
2018-05-12T07:53:32.373Z,16.4
2018-05-12T07:55:00.726Z,16.5
2018-05-12T07:55:31.042Z,16.5
2018-05-12T07:56:01.696Z,16.5
2018-05-12T07:56:32.240Z,16.5
2018-05-12T07:57:02.526Z,16.5
2018-05-12T07:57:33.074Z,16.5
2018-05-12T07:58:57.956Z,16.5
2018-05-12T08:00:56.562Z,16.6
2018-05-12T08:01:55.687Z,16.6
2018-05-12T08:02:55.023Z,16.6
2018-05-12T08:03:54.249Z,16.6
2018-05-12T08:04:53.941Z,16.6
2018-05-12T08:05:24.576Z,16.6
2018-05-12T08:05:54.817Z,16.7
2018-05-12T08:06:25.453Z,16.7
2018-05-12T08:06:56.092Z,16.7
2018-05-12T08:07:26.521Z,16.7
2018-05-12T08:08:51.004Z,16.8
2018-05-12T08:09:50.221Z,16.7
2018-05-12T08:10:49.436Z,16.7
2018-05-12T08:11:48.817Z,16.7
2018-05-12T08:12:48.110Z,16.7
2018-05-12T08:13:47.385Z,16.8
2018-05-12T08:15:45.874Z,16.8
2018-05-12T08:16:45.491Z,16.9
2018-05-12T08:17:44.703Z,16.9
2018-05-12T08:18:43.939Z,17
2018-05-12T08:19:43.161Z,17.1
2018-05-12T08:20:42.493Z,17.2
2018-05-12T08:21:41.815Z,17.3
2018-05-12T08:22:41.257Z,17.3
2018-05-12T08:23:40.475Z,17.4
2018-05-12T08:24:39.901Z,17.4
2018-05-12T08:25:39.333Z,17.4
2018-05-12T08:26:38.660Z,17.5
2018-05-12T08:27:37.876Z,17.5
2018-05-12T08:28:37.210Z,17.6
2018-05-12T08:29:36.428Z,17.6
2018-05-12T08:30:36.139Z,17.6
2018-05-12T08:32:34.350Z,17.6
2018-05-12T08:33:33.790Z,17.6
2018-05-12T08:34:33.120Z,17.6
2018-05-12T08:35:32.444Z,17.6
2018-05-12T08:36:31.545Z,17.6
2018-05-12T08:37:31.376Z,17.6
2018-05-12T08:38:01.683Z,17.6
2018-05-12T08:38:32.219Z,17.7
2018-05-12T08:39:29.824Z,17.7
2018-05-12T08:40:29.298Z,17.8
2018-05-12T08:41:28.570Z,17.8
2018-05-12T08:42:27.911Z,17.9
2018-05-12T08:43:27.146Z,17.9
2018-05-12T08:44:26.374Z,17.9
2018-05-12T08:45:25.836Z,17.8
2018-05-12T08:46:25.172Z,17.8
2018-05-12T08:47:24.387Z,17.8
2018-05-12T08:48:23.850Z,17.8
2018-05-12T08:49:23.287Z,17.7
2018-05-12T08:50:22.212Z,17.8
2018-05-12T08:52:20.934Z,17.7
2018-05-12T08:53:20.155Z,17.6
2018-05-12T08:54:19.496Z,17.6
2018-05-12T08:55:18.960Z,17.6
2018-05-12T08:56:18.511Z,17.6
2018-05-12T08:57:17.615Z,17.6
2018-05-12T08:58:16.831Z,17.6
2018-05-12T08:59:16.145Z,17.6
2018-05-12T09:00:15.585Z,17.6
2018-05-12T09:01:15.017Z,17.6
2018-05-12T09:02:14.335Z,17.7
2018-05-12T09:03:13.945Z,17.7
2018-05-12T09:04:13.270Z,17.7
2018-05-12T09:06:11.550Z,17.7
2018-05-12T09:07:11.014Z,17.7
2018-05-12T09:09:09.781Z,17.8
2018-05-12T09:10:09.001Z,17.9
2018-05-12T09:11:08.321Z,17.9
2018-05-12T09:12:07.761Z,18
2018-05-12T09:13:07.193Z,18
2018-05-12T09:15:05.909Z,18.1
2018-05-12T09:16:05.127Z,18.2
2018-05-12T09:18:03.741Z,18.3
2018-05-12T09:19:02.862Z,18.4
2018-05-12T09:20:02.203Z,18.4
2018-05-12T09:21:01.933Z,18.4
2018-05-12T09:22:00.936Z,18.4
2018-05-12T09:23:00.045Z,18.5
2018-05-12T09:23:59.983Z,18.5
2018-05-12T09:24:59.195Z,18.5
2018-05-12T09:25:58.527Z,18.6
2018-05-12T09:26:57.849Z,18.7
2018-05-12T09:27:57.169Z,18.8
2018-05-12T09:28:56.273Z,18.8
2018-05-12T09:29:55.591Z,18.8
2018-05-12T09:30:55.425Z,18.9
2018-05-12T09:31:54.760Z,19
2018-05-12T09:32:53.759Z,19.1
2018-05-12T09:33:53.088Z,19.1
2018-05-12T09:34:23.727Z,19.1
2018-05-12T09:34:53.964Z,19.2
2018-05-12T09:35:24.103Z,19.2
2018-05-12T09:35:54.860Z,19.2
2018-05-12T09:36:25.401Z,19.2
2018-05-12T09:38:50.184Z,19.4
2018-05-12T09:39:49.525Z,19.5
2018-05-12T09:40:48.846Z,19.5
2018-05-12T09:41:47.958Z,19.5
2018-05-12T09:42:47.189Z,19.6
2018-05-12T09:44:46.013Z,19.5
2018-05-12T09:45:16.262Z,19.5
2018-05-12T09:47:44.055Z,19.5
2018-05-12T09:48:43.780Z,19.5
2018-05-12T09:49:42.715Z,19.5
2018-05-12T09:50:42.552Z,19.5
2018-05-12T09:51:41.482Z,19.5
2018-05-12T09:52:40.811Z,19.6
2018-05-12T09:53:40.418Z,19.6
2018-05-12T09:54:39.747Z,19.6
2018-05-12T09:55:38.963Z,19.6
2018-05-12T09:57:37.669Z,19.6
2018-05-12T09:58:37.115Z,19.6
2018-05-12T09:59:36.775Z,19.6
2018-05-12T10:00:36.022Z,19.6
2018-05-12T10:01:35.240Z,19.5
2018-05-12T10:02:34.965Z,19.4
2018-05-12T10:03:34.299Z,19.4
2018-05-12T10:04:33.534Z,19.4
2018-05-12T10:05:32.963Z,19.5
2018-05-12T10:06:32.293Z,19.6
2018-05-12T10:07:31.725Z,19.6
2018-05-12T10:08:31.163Z,19.6
2018-05-12T10:09:30.692Z,19.6
2018-05-12T10:10:29.772Z,19.7
2018-05-12T10:11:29.118Z,19.7
2018-05-12T10:12:28.454Z,19.7
2018-05-12T10:13:27.689Z,19.7
2018-05-12T10:14:27.009Z,19.7
2018-05-12T10:15:27.034Z,19.6
2018-05-12T10:16:26.095Z,19.6
2018-05-12T10:16:56.644Z,19.6
2018-05-12T10:17:27.096Z,19.6
2018-05-12T10:17:57.629Z,19.6
2018-05-12T10:18:27.871Z,19.6
2018-05-12T10:18:58.401Z,19.6
2018-05-12T10:20:23.688Z,19.6
2018-05-12T10:21:23.526Z,19.6
2018-05-12T10:22:22.139Z,19.6
2018-05-12T10:23:21.693Z,19.6
2018-05-12T10:24:21.018Z,19.6
2018-05-12T10:25:20.463Z,19.7
2018-05-12T10:26:20.102Z,19.5
2018-05-12T10:27:19.052Z,19.5
2018-05-12T10:28:18.394Z,19.5
2018-05-12T10:28:49.137Z,19.5
2018-05-12T10:30:16.936Z,19.6
2018-05-12T10:31:16.872Z,19.7
2018-05-12T10:32:16.199Z,19.7
2018-05-12T10:33:15.529Z,19.8
2018-05-12T10:34:14.984Z,19.8
2018-05-12T10:35:14.197Z,19.8
2018-05-12T10:36:13.411Z,19.9
2018-05-12T10:37:13.247Z,19.9
2018-05-12T10:38:12.689Z,19.9
2018-05-12T10:39:11.515Z,19.9
2018-05-12T10:40:11.349Z,19.9
2018-05-12T10:41:10.671Z,19.9
2018-05-12T10:42:09.886Z,19.9
2018-05-12T10:43:09.325Z,19.9
2018-05-12T10:44:08.758Z,19.9
2018-05-12T10:45:08.263Z,19.9
2018-05-12T10:46:07.366Z,19.9
2018-05-12T10:47:07.085Z,19.9
2018-05-12T10:48:06.299Z,19.9
2018-05-12T10:50:05.013Z,19.9
2018-05-12T10:51:04.732Z,20
2018-05-12T10:52:03.956Z,20
2018-05-12T10:53:03.283Z,20.1
2018-05-12T10:54:02.497Z,20.2
2018-05-12T10:55:01.940Z,20.2
2018-05-12T10:56:01.159Z,20.3
2018-05-12T10:57:01.108Z,20.3
2018-05-12T10:58:00.121Z,20.3
2018-05-12T10:58:59.923Z,20.3
2018-05-12T10:59:59.138Z,20.3
2018-05-12T11:00:58.360Z,20.4
2018-05-12T11:01:57.781Z,20.4
2018-05-12T11:02:57.176Z,20.5
2018-05-12T11:03:56.510Z,20.6
2018-05-12T11:04:55.932Z,20.7
2018-05-12T11:05:55.263Z,20.7
2018-05-12T11:06:54.990Z,20.8
2018-05-12T11:07:54.201Z,20.8
2018-05-12T11:08:53.924Z,20.9
2018-05-12T11:09:53.146Z,20.9
2018-05-12T11:10:52.159Z,20.8
2018-05-12T11:11:51.997Z,20.8
2018-05-12T11:12:51.321Z,20.9
2018-05-12T11:13:50.747Z,20.9
2018-05-12T11:14:50.071Z,21
2018-05-12T11:15:49.586Z,21
2018-05-12T11:16:48.984Z,21
2018-05-12T11:17:48.427Z,21
2018-05-12T11:18:47.879Z,21
2018-05-12T11:19:47.213Z,21
2018-05-12T11:20:46.432Z,21
2018-05-12T11:21:46.214Z,20.9
2018-05-12T11:22:45.473Z,21
2018-05-12T11:24:44.297Z,21.2
2018-05-12T11:25:43.516Z,21.2
2018-05-12T11:26:43.147Z,21.3
2018-05-12T11:27:42.464Z,21.4
2018-05-12T11:28:41.896Z,21.5
2018-05-12T11:30:40.614Z,21.7
2018-05-12T11:31:40.344Z,21.8
2018-05-12T11:32:39.555Z,21.8
2018-05-12T11:33:38.991Z,21.9
2018-05-12T11:34:38.319Z,22
2018-05-12T11:35:37.756Z,22.1
2018-05-12T11:36:37.608Z,22.1
2018-05-12T11:37:36.826Z,22.2
2018-05-12T11:38:35.871Z,22.3
2018-05-12T11:39:35.797Z,22.3
2018-05-12T11:40:34.949Z,22.4
2018-05-12T11:41:34.381Z,22.4
2018-05-12T11:42:33.815Z,22.5
2018-05-12T11:43:33.544Z,22.6
2018-05-12T11:44:32.927Z,22.4
2018-05-12T11:47:31.132Z,22.7
2018-05-12T11:48:30.348Z,22.9
2018-05-12T11:49:29.738Z,22.9
2018-05-12T11:50:29.348Z,23
2018-05-12T11:51:28.872Z,23
2018-05-12T11:52:28.512Z,23.1
2018-05-12T11:53:27.839Z,23.2
2018-05-12T11:54:27.364Z,23.1
2018-05-12T11:55:26.691Z,23.2
2018-05-12T11:56:26.414Z,23.3
2018-05-12T11:57:25.623Z,23.4
2018-05-12T11:57:56.248Z,23.4
2018-05-12T11:58:26.957Z,23.6
2018-05-12T12:00:24.245Z,23.6
2018-05-12T12:01:23.763Z,23.7
2018-05-12T12:02:23.319Z,23.8
2018-05-12T12:03:22.785Z,23.9
2018-05-12T12:04:22.101Z,23.9
2018-05-12T12:05:21.428Z,24
2018-05-12T12:06:20.869Z,24.1
2018-05-12T12:07:20.492Z,24
2018-05-12T12:08:19.826Z,23.9
2018-05-12T12:08:50.362Z,23.9
2018-05-12T12:09:21.002Z,24
2018-05-12T12:10:18.937Z,24.1
2018-05-12T12:11:18.390Z,24.1
2018-05-12T12:12:17.894Z,24.3
2018-05-12T12:13:17.736Z,24.3
2018-05-12T12:15:16.356Z,24.3
2018-05-12T12:16:15.766Z,24.3
2018-05-12T12:17:15.595Z,24.4
2018-05-12T12:18:15.100Z,24.5
2018-05-12T12:19:14.429Z,24.5
2018-05-12T12:20:13.753Z,24.7
2018-05-12T12:21:13.578Z,24.9
2018-05-12T12:22:12.899Z,24.8
2018-05-12T12:23:12.617Z,24.9
2018-05-12T12:24:11.845Z,25
2018-05-12T12:25:11.462Z,24.9
2018-05-12T12:26:10.897Z,24.9
2018-05-12T12:27:10.826Z,25.1
2018-05-12T12:28:09.824Z,25.1
2018-05-12T12:29:09.644Z,25.1
2018-05-12T12:30:08.980Z,25.2
2018-05-12T12:31:08.709Z,25.1
2018-05-12T12:32:08.424Z,25.4
2018-05-12T12:33:07.536Z,25.4
2018-05-12T12:34:07.440Z,25.5
2018-05-12T12:35:06.778Z,25.6
2018-05-12T12:36:06.006Z,25.7
2018-05-12T12:37:06.025Z,25.8
2018-05-12T12:37:36.556Z,25.8
2018-05-12T12:38:07.213Z,25.8
2018-05-12T12:39:05.027Z,25.9
2018-05-12T12:40:04.348Z,25.6
2018-05-12T12:41:03.811Z,25.8
2018-05-12T12:42:03.530Z,25.8
2018-05-12T12:43:03.358Z,26
2018-05-12T12:44:02.361Z,26
2018-05-12T12:45:02.558Z,26.1
2018-05-12T12:46:01.519Z,26
2018-05-12T12:47:01.527Z,26.2
2018-05-12T12:48:00.749Z,26.3
2018-05-12T12:49:00.463Z,26.2
2018-05-12T12:49:59.883Z,26.3
2018-05-12T12:50:59.209Z,26.3
2018-05-12T12:51:59.156Z,26.4
2018-05-12T12:52:58.578Z,26.5
2018-05-12T12:53:58.031Z,26.5
2018-05-12T12:55:57.125Z,26.6
2018-05-12T12:56:56.843Z,26.6
2018-05-12T12:57:56.674Z,26.7
2018-05-12T12:58:55.902Z,26.7
2018-05-12T12:59:55.729Z,26.6
2018-05-12T13:00:55.451Z,26.8
2018-05-12T13:01:54.667Z,26.9
2018-05-12T13:02:54.009Z,26.9
2018-05-12T13:03:53.726Z,26.7
2018-05-12T13:05:52.894Z,26.7
2018-05-12T13:06:52.613Z,26.9
2018-05-12T13:07:52.113Z,26.9
2018-05-12T13:08:51.943Z,27.1
2018-05-12T13:09:51.271Z,27
2018-05-12T13:10:50.878Z,27.1
2018-05-12T13:11:21.516Z,27.1
2018-05-12T13:12:49.942Z,27.5
2018-05-12T13:14:49.176Z,27.4
2018-05-12T13:15:49.002Z,27.4
2018-05-12T13:17:48.216Z,27
2018-05-12T13:18:47.546Z,27.1
2018-05-12T13:20:47.153Z,27.2
2018-05-12T13:21:46.587Z,27.1
2018-05-12T13:22:17.221Z,27.1
2018-05-12T13:22:47.368Z,27
2018-05-12T13:23:18.006Z,27
2018-05-12T13:24:45.513Z,27.4
2018-05-12T13:25:45.130Z,27.5
2018-05-12T13:26:44.267Z,27.6
2018-05-12T13:27:44.095Z,27.7
2018-05-12T13:28:43.758Z,27.6